Cañal Bajo Carlos - Hott Siebert Airport
SCJO : rendu visible

Aérodrome :











RETROUVEZ-NOUS SUR...

 
LOGIN :

S'inscrire | Disclaimer

   EN    FR    IT 

 









Légende :    VFR   VFR Marginal   IFR   IFR Intensif   IFR Très Intensif
Visi : 
Plafond : 
>= 8 km
>= 3000ft
5 à 8 km
1000 à 3000 ft
1500m à 5 km
500 à 1000 ft
800 à 1500m
200 à 500 ft
< 800m
< 200 ft
Symboles :   Orages  Brouillard  Fortes neiges  Fortes précipitations  Vent > 20 kt






- Altitude de l'aérodrome : 187 ft
- Code IATA : ZOS


SCJO - Cañal Bajo Carlos - Hott Siebert

DERNIER METAR :
  • 041800Z 19007KT 9999 BKN040 16/06 Q1016

METARs EXPIRÉS :
  • 041700Z 20006KT 9999 BKN050 16/06 Q1017
  • 041600Z 15008KT 9999 BKN040 15/05 Q1017

TAF TAF SCJO
Valide du 04 à 12h jusqu'au 05 à 00h UTC


041020Z 0412/0424 VRB03KT CAVOK TN02/0412Z TX16/0418Z
BECMG 0413/0415 20007KT



MET'MAP, la Météo Aéronautique d'un coup d'oeil ! - Copyright ORBIFLY Décembre 2007 - Disclaimer

ORBIFLY MET'MAP TEAM :

Programmation & Développement : Alexandra Zaïnal
Sur une idée originale de : Baudouin d'Aumeries
Assistance à la programmation : Marc-Olivier Méhu
Soutien technique & logistique : Manuel Goepfert

Contact : metmap@orbifly.com




SOURCES & CREDITS :

   NOAA       Earth
Advisory